sensor_id;sensor_type;location;lat;lon;timestamp;pressure;altitude;pressure_sealevel;temperature;humidity
60852;BME280;48553;50.766;2.900;2023-02-10T00:01:52;102913.72;;;5.26;82.45
60852;BME280;48553;50.766;2.900;2023-02-10T00:04:52;102921.56;;;5.22;82.75
60852;BME280;48553;50.766;2.900;2023-02-10T00:07:53;102930.78;;;5.21;82.38
60852;BME280;48553;50.766;2.900;2023-02-10T00:11:01;102934.44;;;5.27;82.20
60852;BME280;48553;50.766;2.900;2023-02-10T00:14:02;102924.03;;;5.24;82.08
60852;BME280;48553;50.766;2.900;2023-02-10T00:17:03;102932.09;;;5.19;82.30
60852;BME280;48553;50.766;2.900;2023-02-10T00:20:04;102946.28;;;5.21;82.18
60852;BME280;48553;50.766;2.900;2023-02-10T00:23:04;102947.31;;;5.20;82.41
60852;BME280;48553;50.766;2.900;2023-02-10T00:26:10;102947.91;;;5.22;82.29
60852;BME280;48553;50.766;2.900;2023-02-10T00:29:11;102937.75;;;5.17;82.66
60852;BME280;48553;50.766;2.900;2023-02-10T00:32:11;102933.41;;;5.16;82.95
60852;BME280;48553;50.766;2.900;2023-02-10T00:35:12;102940.75;;;5.16;82.73
60852;BME280;48553;50.766;2.900;2023-02-10T00:38:12;102942.97;;;5.19;83.13
60852;BME280;48553;50.766;2.900;2023-02-10T00:41:18;102949.22;;;5.19;83.05
60852;BME280;48553;50.766;2.900;2023-02-10T00:44:18;102940.25;;;5.19;83.08
60852;BME280;48553;50.766;2.900;2023-02-10T00:47:19;102938.63;;;5.18;83.06
60852;BME280;48553;50.766;2.900;2023-02-10T00:50:19;102945.09;;;5.17;83.31
60852;BME280;48553;50.766;2.900;2023-02-10T00:53:19;102938.25;;;5.14;83.64
60852;BME280;48553;50.766;2.900;2023-02-10T00:56:20;102937.19;;;5.15;83.72
60852;BME280;48553;50.766;2.900;2023-02-10T00:59:21;102937.19;;;5.15;83.65
60852;BME280;48553;50.766;2.900;2023-02-10T01:02:21;102926.91;;;5.17;83.84
60852;BME280;48553;50.766;2.900;2023-02-10T01:05:21;102930.69;;;5.16;83.72
60852;BME280;48553;50.766;2.900;2023-02-10T01:08:22;102919.59;;;5.18;83.99
60852;BME280;48553;50.766;2.900;2023-02-10T01:11:22;102931.28;;;5.18;84.16
60852;BME280;48553;50.766;2.900;2023-02-10T01:14:24;102923.34;;;5.17;84.25
60852;BME280;48553;50.766;2.900;2023-02-10T01:17:24;102925.25;;;5.16;84.16
60852;BME280;48553;50.766;2.900;2023-02-10T01:20:25;102933.19;;;5.18;83.80
60852;BME280;48553;50.766;2.900;2023-02-10T01:23:26;102933.41;;;5.16;83.60
60852;BME280;48553;50.766;2.900;2023-02-10T01:26:26;102927.16;;;5.16;83.94
60852;BME280;48553;50.766;2.900;2023-02-10T01:29:27;102930.34;;;5.13;83.88
60852;BME280;48553;50.766;2.900;2023-02-10T01:32:27;102932.47;;;5.11;83.79
60852;BME280;48553;50.766;2.900;2023-02-10T01:35:27;102933.06;;;5.13;84.19
60852;BME280;48553;50.766;2.900;2023-02-10T01:38:28;102933.06;;;5.13;84.26
60852;BME280;48553;50.766;2.900;2023-02-10T01:41:28;102922.69;;;5.10;84.43
60852;BME280;48553;50.766;2.900;2023-02-10T01:47:29;102933.56;;;5.10;84.19
60852;BME280;48553;50.766;2.900;2023-02-10T01:50:32;102936.03;;;5.11;84.08
60852;BME280;48553;50.766;2.900;2023-02-10T01:53:34;102933.56;;;5.10;84.25
60852;BME280;48553;50.766;2.900;2023-02-10T01:56:34;102951.78;;;5.09;84.04
60852;BME280;48553;50.766;2.900;2023-02-10T01:59:36;102949.88;;;5.10;84.00
60852;BME280;48553;50.766;2.900;2023-02-10T02:02:39;102937.38;;;5.09;84.42
60852;BME280;48553;50.766;2.900;2023-02-10T02:05:41;102946.81;;;5.06;84.83
60852;BME280;48553;50.766;2.900;2023-02-10T02:08:42;102953.09;;;5.07;84.83
60852;BME280;48553;50.766;2.900;2023-02-10T02:11:57;102952.34;;;5.11;84.49
60852;BME280;48553;50.766;2.900;2023-02-10T02:15:23;102946.34;;;5.09;84.77
60852;BME280;48553;50.766;2.900;2023-02-10T02:18:36;102941.13;;;5.08;84.97
60852;BME280;48553;50.766;2.900;2023-02-10T02:22:15;102939.00;;;5.10;84.94
60852;BME280;48553;50.766;2.900;2023-02-10T02:35:09;102939.00;;;5.10;85.19
60852;BME280;48553;50.766;2.900;2023-02-10T02:38:11;102943.84;;;5.08;85.17
60852;BME280;48553;50.766;2.900;2023-02-10T02:41:12;102945.16;;;5.05;85.16
60852;BME280;48553;50.766;2.900;2023-02-10T02:44:12;102941.63;;;5.05;85.07
60852;BME280;48553;50.766;2.900;2023-02-10T02:54:06;102968.81;;;5.05;85.03
60852;BME280;48553;50.766;2.900;2023-02-10T02:57:09;102969.84;;;5.03;85.02
60852;BME280;48553;50.766;2.900;2023-02-10T03:00:16;102963.59;;;5.03;85.35
60852;BME280;48553;50.766;2.900;2023-02-10T03:03:18;102951.91;;;5.02;85.41
60852;BME280;48553;50.766;2.900;2023-02-10T03:06:19;102970.94;;;5.02;85.36
60852;BME280;48553;50.766;2.900;2023-02-10T03:09:20;102965.50;;;5.02;85.61
60852;BME280;48553;50.766;2.900;2023-02-10T03:12:20;102965.00;;;5.06;85.33
60852;BME280;48553;50.766;2.900;2023-02-10T03:15:21;102948.13;;;5.03;85.84
60852;BME280;48553;50.766;2.900;2023-02-10T03:18:21;102959.81;;;5.04;85.75
60852;BME280;48553;50.766;2.900;2023-02-10T03:21:22;102960.06;;;5.02;85.75
60852;BME280;48553;50.766;2.900;2023-02-10T03:24:22;102961.72;;;5.03;85.80
60852;BME280;48553;50.766;2.900;2023-02-10T03:27:23;102973.41;;;5.04;85.71
60852;BME280;48553;50.766;2.900;2023-02-10T03:30:24;102951.91;;;5.02;85.75
60852;BME280;48553;50.766;2.900;2023-02-10T03:33:24;102960.06;;;5.02;86.00
60852;BME280;48553;50.766;2.900;2023-02-10T03:36:24;102968.81;;;5.05;85.80
60852;BME280;48553;50.766;2.900;2023-02-10T03:39:25;102965.00;;;5.06;85.92
60852;BME280;48553;50.766;2.900;2023-02-10T03:42:25;102964.44;;;5.03;85.69
60852;BME280;48553;50.766;2.900;2023-02-10T03:45:26;102957.94;;;5.05;85.62
60852;BME280;48553;50.766;2.900;2023-02-10T03:48:26;102961.72;;;5.03;85.61
60852;BME280;48553;50.766;2.900;2023-02-10T03:51:31;102953.81;;;5.02;85.68
60852;BME280;48553;50.766;2.900;2023-02-10T03:54:31;102952.75;;;5.03;85.69
60852;BME280;48553;50.766;2.900;2023-02-10T03:57:32;102959.25;;;5.02;85.69
60852;BME280;48553;50.766;2.900;2023-02-10T04:00:32;102976.38;;;5.02;85.72
60852;BME280;48553;50.766;2.900;2023-02-10T04:03:33;102966.81;;;5.00;85.89
60852;BME280;48553;50.766;2.900;2023-02-10T04:06:33;102963.53;;;4.98;86.09
60852;BME280;48553;50.766;2.900;2023-02-10T04:09:33;102978.50;;;5.00;86.10
60852;BME280;48553;50.766;2.900;2023-02-10T04:12:34;102985.00;;;4.99;85.88
60852;BME280;48553;50.766;2.900;2023-02-10T04:15:34;102993.28;;;5.05;85.82
60852;BME280;48553;50.766;2.900;2023-02-10T04:18:35;102995.41;;;5.02;85.93
60852;BME280;48553;50.766;2.900;2023-02-10T04:21:36;102990.19;;;5.01;85.96
60852;BME280;48553;50.766;2.900;2023-02-10T04:24:36;102980.41;;;5.00;85.96
60852;BME280;48553;50.766;2.900;2023-02-10T04:27:36;102987.72;;;4.99;86.00
60852;BME280;48553;50.766;2.900;2023-02-10T04:30:37;102983.13;;;5.00;86.08
60852;BME280;48553;50.766;2.900;2023-02-10T04:33:37;102985.00;;;4.99;86.17
60852;BME280;48553;50.766;2.900;2023-02-10T04:36:38;102972.72;;;4.97;86.15
60852;BME280;48553;50.766;2.900;2023-02-10T04:39:38;102985.00;;;4.99;86.11
60852;BME280;48553;50.766;2.900;2023-02-10T04:42:39;102986.31;;;4.97;86.29
60852;BME280;48553;50.766;2.900;2023-02-10T04:45:39;103003.47;;;4.97;86.07
60852;BME280;48553;50.766;2.900;2023-02-10T04:48:40;102998.25;;;4.96;86.40
60852;BME280;48553;50.766;2.900;2023-02-10T04:51:40;102999.91;;;4.97;85.93
60852;BME280;48553;50.766;2.900;2023-02-10T04:54:40;103003.47;;;4.97;86.12
60852;BME280;48553;50.766;2.900;2023-02-10T04:57:41;102987.41;;;4.96;86.14
60852;BME280;48553;50.766;2.900;2023-02-10T05:00:41;102995.78;;;4.94;86.33
60852;BME280;48553;50.766;2.900;2023-02-10T05:03:42;102995.78;;;4.94;86.32
60852;BME280;48553;50.766;2.900;2023-02-10T05:06:42;102992.47;;;4.92;86.18
60852;BME280;48553;50.766;2.900;2023-02-10T05:09:42;102990.34;;;4.94;86.48
60852;BME280;48553;50.766;2.900;2023-02-10T05:12:43;102985.16;;;4.93;86.22
60852;BME280;48553;50.766;2.900;2023-02-10T05:15:43;102986.56;;;4.95;86.00
60852;BME280;48553;50.766;2.900;2023-02-10T05:18:44;102987.31;;;4.91;85.91
60852;BME280;48553;50.766;2.900;2023-02-10T05:21:44;102991.31;;;4.88;86.09
60852;BME280;48553;50.766;2.900;2023-02-10T05:24:45;102999.00;;;4.91;86.14
60852;BME280;48553;50.766;2.900;2023-02-10T05:27:45;103001.13;;;4.89;86.04
60852;BME280;48553;50.766;2.900;2023-02-10T05:30:47;102987.53;;;4.89;85.89
60852;BME280;48553;50.766;2.900;2023-02-10T05:33:47;102990.25;;;4.89;85.94
60852;BME280;48553;50.766;2.900;2023-02-10T05:36:48;102979.88;;;4.86;86.04
60852;BME280;48553;50.766;2.900;2023-02-10T05:39:48;102980.69;;;4.87;85.89
60852;BME280;48553;50.766;2.900;2023-02-10T05:42:49;102989.06;;;4.85;85.96
60852;BME280;48553;50.766;2.900;2023-02-10T05:45:49;102983.31;;;4.81;86.01
60852;BME280;48553;50.766;2.900;2023-02-10T05:48:50;102983.56;;;4.80;85.67
60852;BME280;48553;50.766;2.900;2023-02-10T05:51:50;102980.00;;;4.79;85.70
60852;BME280;48553;50.766;2.900;2023-02-10T05:54:51;102974.59;;;4.79;85.38
60852;BME280;48553;50.766;2.900;2023-02-10T05:57:51;102973.19;;;4.77;85.42
60852;BME280;48553;50.766;2.900;2023-02-10T06:00:52;102975.53;;;4.73;85.47
60852;BME280;48553;50.766;2.900;2023-02-10T06:03:52;102969.53;;;4.71;85.60
60852;BME280;48553;50.766;2.900;2023-02-10T06:06:53;102964.66;;;4.73;85.28
60852;BME280;48553;50.766;2.900;2023-02-10T06:09:53;102959.47;;;4.72;85.25
60852;BME280;48553;50.766;2.900;2023-02-10T06:12:54;102968.69;;;4.71;85.22
60852;BME280;48553;50.766;2.900;2023-02-10T06:15:54;102966.81;;;4.71;85.11
60852;BME280;48553;50.766;2.900;2023-02-10T06:18:54;102963.50;;;4.69;85.19
60852;BME280;48553;50.766;2.900;2023-02-10T06:21:55;102964.31;;;4.70;85.09
60852;BME280;48553;50.766;2.900;2023-02-10T06:24:55;102954.75;;;4.67;85.38
60852;BME280;48553;50.766;2.900;2023-02-10T06:27:56;102967.53;;;4.67;85.44
60852;BME280;48553;50.766;2.900;2023-02-10T06:30:57;102960.09;;;4.62;85.85
60852;BME280;48553;50.766;2.900;2023-02-10T06:33:58;102949.00;;;4.64;85.83
60852;BME280;48553;50.766;2.900;2023-02-10T06:36:58;102951.47;;;4.65;85.78
60852;BME280;48553;50.766;2.900;2023-02-10T06:39:58;102962.09;;;4.67;85.50
60852;BME280;48553;50.766;2.900;2023-02-10T06:42:59;102964.44;;;4.63;85.95
60852;BME280;48553;50.766;2.900;2023-02-10T06:46:01;102965.31;;;4.64;85.89
60852;BME280;48553;50.766;2.900;2023-02-10T06:49:01;102966.63;;;4.61;86.09
60852;BME280;48553;50.766;2.900;2023-02-10T06:52:02;102970.16;;;4.62;85.81
60852;BME280;48553;50.766;2.900;2023-02-10T06:55:06;102977.47;;;4.61;86.00
60852;BME280;48553;50.766;2.900;2023-02-10T06:58:07;102966.13;;;4.64;85.92
60852;BME280;48553;50.766;2.900;2023-02-10T07:01:09;102979.34;;;4.60;86.41
60852;BME280;48553;50.766;2.900;2023-02-10T07:04:09;102986.44;;;4.62;86.15
60852;BME280;48553;50.766;2.900;2023-02-10T07:07:10;102979.34;;;4.60;86.30
60852;BME280;48553;50.766;2.900;2023-02-10T07:10:10;103006.75;;;4.59;86.44
60852;BME280;48553;50.766;2.900;2023-02-10T07:13:11;103002.38;;;4.58;86.58
60852;BME280;48553;50.766;2.900;2023-02-10T07:16:12;103007.81;;;4.58;86.55
60852;BME280;48553;50.766;2.900;2023-02-10T07:19:15;103008.41;;;4.60;86.32
60852;BME280;48553;50.766;2.900;2023-02-10T07:22:15;103008.63;;;4.58;86.30
60852;BME280;48553;50.766;2.900;2023-02-10T07:25:15;103010.75;;;4.56;86.33
60852;BME280;48553;50.766;2.900;2023-02-10T07:28:16;103014.53;;;4.55;86.41
60852;BME280;48553;50.766;2.900;2023-02-10T07:31:16;103005.59;;;4.55;86.47
60852;BME280;48553;50.766;2.900;2023-02-10T07:34:17;103005.00;;;4.53;86.38
60852;BME280;48553;50.766;2.900;2023-02-10T07:37:21;103002.28;;;4.53;86.60
60852;BME280;48553;50.766;2.900;2023-02-10T07:40:21;103009.34;;;4.54;87.03
60852;BME280;48553;50.766;2.900;2023-02-10T07:43:22;103011.25;;;4.53;86.56
60852;BME280;48553;50.766;2.900;2023-02-10T07:46:23;103007.72;;;4.53;86.62
60852;BME280;48553;50.766;2.900;2023-02-10T07:49:23;103001.69;;;4.51;86.87
60852;BME280;48553;50.766;2.900;2023-02-10T07:52:24;103014.53;;;4.55;86.52
60852;BME280;48553;50.766;2.900;2023-02-10T07:55:25;103025.41;;;4.55;86.56
60852;BME280;48553;50.766;2.900;2023-02-10T07:58:25;103046.31;;;4.55;86.49
60852;BME280;48553;50.766;2.900;2023-02-10T08:01:26;103033.78;;;4.54;86.35
60852;BME280;48553;50.766;2.900;2023-02-10T08:04:26;103035.44;;;4.55;86.36
60852;BME280;48553;50.766;2.900;2023-02-10T08:07:27;103040.53;;;4.51;86.44
60852;BME280;48553;50.766;2.900;2023-02-10T08:10:27;103047.63;;;4.52;86.35
60852;BME280;48553;50.766;2.900;2023-02-10T08:13:28;103044.91;;;4.52;86.54
60852;BME280;48553;50.766;2.900;2023-02-10T08:16:29;103051.38;;;4.51;86.66
60852;BME280;48553;50.766;2.900;2023-02-10T08:19:29;103055.75;;;4.52;86.74
60852;BME280;48553;50.766;2.900;2023-02-10T08:22:30;103048.66;;;4.51;87.10
60852;BME280;48553;50.766;2.900;2023-02-10T08:25:30;103039.22;;;4.54;87.03
60852;BME280;48553;50.766;2.900;2023-02-10T08:28:31;103037.56;;;4.53;87.46
60852;BME280;48553;50.766;2.900;2023-02-10T08:31:32;103030.59;;;4.57;87.04
60852;BME280;48553;50.766;2.900;2023-02-10T08:34:32;103037.09;;;4.56;87.21
60852;BME280;48553;50.766;2.900;2023-02-10T08:37:34;103031.44;;;4.57;87.32
60852;BME280;48553;50.766;2.900;2023-02-10T08:40:35;103036.63;;;4.59;87.77
60852;BME280;48553;50.766;2.900;2023-02-10T08:43:35;103042.41;;;4.63;87.92
60852;BME280;48553;50.766;2.900;2023-02-10T08:46:36;103052.81;;;4.66;87.92
60852;BME280;48553;50.766;2.900;2023-02-10T08:49:37;103070.72;;;4.67;87.89
60852;BME280;48553;50.766;2.900;2023-02-10T08:52:37;103086.53;;;4.70;87.76
60852;BME280;48553;50.766;2.900;2023-02-10T08:55:37;103074.03;;;4.69;87.91
60852;BME280;48553;50.766;2.900;2023-02-10T08:58:38;103068.59;;;4.69;88.35
60852;BME280;48553;50.766;2.900;2023-02-10T09:01:38;103073.81;;;4.70;88.35
60852;BME280;48553;50.766;2.900;2023-02-10T09:04:40;103074.13;;;4.74;88.25
60852;BME280;48553;50.766;2.900;2023-02-10T09:07:41;103075.81;;;4.75;88.35
60852;BME280;48553;50.766;2.900;2023-02-10T09:10:43;103068.25;;;4.77;88.15
60852;BME280;48553;50.766;2.900;2023-02-10T09:13:43;103064.47;;;4.78;88.35
60852;BME280;48553;50.766;2.900;2023-02-10T09:16:44;103077.22;;;4.77;88.55
60852;BME280;48553;50.766;2.900;2023-02-10T09:19:45;103067.19;;;4.78;88.50
60852;BME280;48553;50.766;2.900;2023-02-10T09:22:46;103068.81;;;4.79;88.85
60852;BME280;48553;50.766;2.900;2023-02-10T09:25:55;103071.31;;;4.80;88.84
60852;BME280;48553;50.766;2.900;2023-02-10T09:28:56;103077.09;;;4.84;88.51
60852;BME280;48553;50.766;2.900;2023-02-10T09:31:57;103088.56;;;4.86;88.63
60852;BME280;48553;50.766;2.900;2023-02-10T09:34:57;103094.81;;;4.87;88.59
60852;BME280;48553;50.766;2.900;2023-02-10T09:37:58;103089.97;;;4.89;88.42
60852;BME280;48553;50.766;2.900;2023-02-10T09:44:21;103110.38;;;4.91;88.48
60852;BME280;48553;50.766;2.900;2023-02-10T09:54:09;103095.25;;;4.95;88.24
60852;BME280;48553;50.766;2.900;2023-02-10T09:57:16;103095.84;;;4.97;88.41
60852;BME280;48553;50.766;2.900;2023-02-10T10:00:25;103082.81;;;4.99;88.10
60852;BME280;48553;50.766;2.900;2023-02-10T10:03:33;103082.38;;;5.02;88.17
60852;BME280;48553;50.766;2.900;2023-02-10T10:06:37;103082.09;;;5.04;88.00
60852;BME280;48553;50.766;2.900;2023-02-10T10:09:49;103087.66;;;5.09;88.16
60852;BME280;48553;50.766;2.900;2023-02-10T10:12:51;103096.63;;;5.10;88.22
60852;BME280;48553;50.766;2.900;2023-02-10T10:26:38;103097.69;;;5.20;87.76
60852;BME280;48553;50.766;2.900;2023-02-10T10:29:57;103087.41;;;5.22;87.71
60852;BME280;48553;50.766;2.900;2023-02-10T10:33:12;103086.06;;;5.25;87.63
60852;BME280;48553;50.766;2.900;2023-02-10T10:36:23;103084.78;;;5.28;87.54
60852;BME280;48553;50.766;2.900;2023-02-10T10:39:36;103093.50;;;5.30;87.28
60852;BME280;48553;50.766;2.900;2023-02-10T10:42:45;103084.03;;;5.32;87.18
60852;BME280;48553;50.766;2.900;2023-02-10T10:45:52;103088.97;;;5.35;87.51
60852;BME280;48553;50.766;2.900;2023-02-10T10:48:55;103085.53;;;5.40;87.30
60852;BME280;48553;50.766;2.900;2023-02-10T10:51:55;103091.66;;;5.47;88.27
60852;BME280;48553;50.766;2.900;2023-02-10T10:54:56;103083.03;;;5.50;87.39
60852;BME280;48553;50.766;2.900;2023-02-10T10:57:58;103086.66;;;5.56;88.96
60852;BME280;48553;50.766;2.900;2023-02-10T11:01:01;103098.47;;;5.61;87.66
60852;BME280;48553;50.766;2.900;2023-02-10T11:04:06;103096.66;;;5.67;88.91
60852;BME280;48553;50.766;2.900;2023-02-10T11:07:12;103094.84;;;5.73;87.43
60852;BME280;48553;50.766;2.900;2023-02-10T11:10:49;103082.81;;;5.85;88.12
60852;BME280;48553;50.766;2.900;2023-02-10T11:13:55;103079.13;;;6.09;86.89
60852;BME280;48553;50.766;2.900;2023-02-10T11:16:59;103077.34;;;6.14;86.86
60852;BME280;48553;50.766;2.900;2023-02-10T11:23:14;103056.56;;;6.47;86.02
60852;BME280;48553;50.766;2.900;2023-02-10T11:26:22;103057.31;;;6.59;86.68
60852;BME280;48553;50.766;2.900;2023-02-10T11:29:22;103041.81;;;6.82;87.38
60852;BME280;48553;50.766;2.900;2023-02-10T11:32:28;103035.34;;;7.15;85.89
60852;BME280;48553;50.766;2.900;2023-02-10T11:35:30;103033.63;;;7.31;85.54
60852;BME280;48553;50.766;2.900;2023-02-10T11:38:33;103035.28;;;7.59;85.37
60852;BME280;48553;50.766;2.900;2023-02-10T11:41:34;103036.78;;;7.77;84.47
60852;BME280;48553;50.766;2.900;2023-02-10T11:44:34;103043.00;;;8.00;84.77
60852;BME280;48553;50.766;2.900;2023-02-10T11:47:35;103030.50;;;8.09;85.49
60852;BME280;48553;50.766;2.900;2023-02-10T11:50:35;103033.16;;;8.04;86.42
60852;BME280;48553;50.766;2.900;2023-02-10T11:53:37;103023.69;;;8.11;86.44
60852;BME280;48553;50.766;2.900;2023-02-10T12:10:08;103009.03;;;8.81;84.64
60852;BME280;48553;50.766;2.900;2023-02-10T12:13:29;103004.72;;;9.00;83.56
60852;BME280;48553;50.766;2.900;2023-02-10T12:16:49;102992.72;;;9.16;83.36
60852;BME280;48553;50.766;2.900;2023-02-10T12:27:07;102990.56;;;9.59;83.25
60852;BME280;48553;50.766;2.900;2023-02-10T12:33:44;102973.31;;;9.79;82.51
60852;BME280;48553;50.766;2.900;2023-02-10T12:43:38;102968.63;;;10.00;82.08
60852;BME280;48553;50.766;2.900;2023-02-10T12:47:04;102980.69;;;9.99;81.87
60852;BME280;48553;50.766;2.900;2023-02-10T12:50:25;102976.28;;;10.09;81.39
60852;BME280;48553;50.766;2.900;2023-02-10T12:53:41;102970.53;;;10.15;81.23
60852;BME280;48553;50.766;2.900;2023-02-10T12:56:46;102969.94;;;10.39;80.42
60852;BME280;48553;50.766;2.900;2023-02-10T12:59:55;102970.19;;;10.42;80.50
60852;BME280;48553;50.766;2.900;2023-02-10T13:03:13;102974.25;;;10.55;80.00
60852;BME280;48553;50.766;2.900;2023-02-10T13:06:37;102971.53;;;10.50;80.19
60852;BME280;48553;50.766;2.900;2023-02-10T13:09:45;102969.03;;;10.59;79.83
60852;BME280;48553;50.766;2.900;2023-02-10T13:12:48;102962.41;;;10.65;79.52
60852;BME280;48553;50.766;2.900;2023-02-10T13:16:03;102954.19;;;10.70;79.41
60852;BME280;48553;50.766;2.900;2023-02-10T13:19:25;102968.66;;;10.76;78.93
60852;BME280;48553;50.766;2.900;2023-02-10T13:22:51;102959.63;;;10.75;79.21
60852;BME280;48553;50.766;2.900;2023-02-10T13:35:59;102977.38;;;10.33;80.18
60852;BME280;48553;50.766;2.900;2023-02-10T13:39:04;102964.75;;;10.27;80.14
60852;BME280;48553;50.766;2.900;2023-02-10T13:42:21;102967.78;;;10.20;80.14
60852;BME280;48553;50.766;2.900;2023-02-10T13:45:25;102953.25;;;10.15;79.45
60852;BME280;48553;50.766;2.900;2023-02-10T13:48:31;102949.69;;;10.14;78.84
60852;BME280;48553;50.766;2.900;2023-02-10T13:51:35;102936.25;;;10.13;79.42
60852;BME280;48553;50.766;2.900;2023-02-10T13:54:37;102946.44;;;10.07;78.97
60852;BME280;48553;50.766;2.900;2023-02-10T13:57:38;102935.19;;;10.09;79.44
60852;BME280;48553;50.766;2.900;2023-02-10T14:00:52;102931.06;;;10.16;78.83
60852;BME280;48553;50.766;2.900;2023-02-10T14:03:56;102931.31;;;10.25;79.35
60852;BME280;48553;50.766;2.900;2023-02-10T14:06:56;102941.19;;;10.31;78.93
60852;BME280;48553;50.766;2.900;2023-02-10T14:13:24;102926.59;;;10.46;78.37
60852;BME280;48553;50.766;2.900;2023-02-10T14:16:30;102917.00;;;10.43;78.27
60852;BME280;48553;50.766;2.900;2023-02-10T14:19:34;102910.44;;;10.39;78.31
60852;BME280;48553;50.766;2.900;2023-02-10T14:22:36;102906.34;;;10.37;77.82
60852;BME280;48553;50.766;2.900;2023-02-10T14:25:39;102909.09;;;10.37;77.91
60852;BME280;48553;50.766;2.900;2023-02-10T14:28:42;102921.97;;;10.36;78.52
60852;BME280;48553;50.766;2.900;2023-02-10T14:31:50;102923.06;;;10.40;78.42
60852;BME280;48553;50.766;2.900;2023-02-10T14:34:54;102927.97;;;10.43;78.30
60852;BME280;48553;50.766;2.900;2023-02-10T14:37:57;102926.91;;;10.34;78.58
60852;BME280;48553;50.766;2.900;2023-02-10T14:40:59;102930.72;;;10.28;77.55
60852;BME280;48553;50.766;2.900;2023-02-10T14:43:59;102930.22;;;10.21;75.81
60852;BME280;48553;50.766;2.900;2023-02-10T14:47:00;102929.97;;;10.12;75.65
60852;BME280;48553;50.766;2.900;2023-02-10T14:50:03;102937.09;;;10.08;75.99
60852;BME280;48553;50.766;2.900;2023-02-10T14:53:04;102936.59;;;10.06;76.32
60852;BME280;48553;50.766;2.900;2023-02-10T14:56:05;102932.19;;;10.00;76.53
60852;BME280;48553;50.766;2.900;2023-02-10T14:59:23;102927.00;;;9.93;76.49
60852;BME280;48553;50.766;2.900;2023-02-10T15:02:27;102932.50;;;9.88;76.30
60852;BME280;48553;50.766;2.900;2023-02-10T15:05:33;102932.78;;;9.81;76.23
60852;BME280;48553;50.766;2.900;2023-02-10T15:08:52;102936.66;;;9.70;77.26
60852;BME280;48553;50.766;2.900;2023-02-10T15:11:57;102929.25;;;9.60;76.21
60852;BME280;48553;50.766;2.900;2023-02-10T15:18:29;102930.09;;;9.46;76.99
60852;BME280;48553;50.766;2.900;2023-02-10T15:21:34;102925.69;;;9.39;77.22
60852;BME280;48553;50.766;2.900;2023-02-10T15:24:34;102933.66;;;9.36;77.32
60852;BME280;48553;50.766;2.900;2023-02-10T15:27:38;102935.84;;;9.34;78.41
60852;BME280;48553;50.766;2.900;2023-02-10T15:34:34;102928.16;;;9.26;78.48
60852;BME280;48553;50.766;2.900;2023-02-10T15:37:34;102934.19;;;9.23;79.07
60852;BME280;48553;50.766;2.900;2023-02-10T15:40:37;102938.81;;;9.17;78.67
60852;BME280;48553;50.766;2.900;2023-02-10T15:43:37;102935.53;;;9.15;78.65
60852;BME280;48553;50.766;2.900;2023-02-10T15:46:53;102937.19;;;9.11;78.04
60852;BME280;48553;50.766;2.900;2023-02-10T15:49:58;102926.22;;;9.06;77.90
60852;BME280;48553;50.766;2.900;2023-02-10T15:52:58;102926.50;;;9.04;78.93
60852;BME280;48553;50.766;2.900;2023-02-10T15:55:59;102934.69;;;8.99;77.96
60852;BME280;48553;50.766;2.900;2023-02-10T15:58:59;102940.72;;;8.96;77.92
60852;BME280;48553;50.766;2.900;2023-02-10T16:02:02;102931.94;;;8.94;78.09
60852;BME280;48553;50.766;2.900;2023-02-10T16:05:02;102932.50;;;8.91;78.44
60852;BME280;48553;50.766;2.900;2023-02-10T16:08:19;102928.97;;;8.90;78.40
60852;BME280;48553;50.766;2.900;2023-02-10T16:11:20;102931.09;;;8.83;78.54
60852;BME280;48553;50.766;2.900;2023-02-10T16:14:21;102932.47;;;8.75;78.42
60852;BME280;48553;50.766;2.900;2023-02-10T16:17:24;102934.94;;;8.77;78.42
60852;BME280;48553;50.766;2.900;2023-02-10T16:20:28;102954.88;;;8.72;78.71
60852;BME280;48553;50.766;2.900;2023-02-10T16:23:28;102938.72;;;8.66;78.51
60852;BME280;48553;50.766;2.900;2023-02-10T16:26:30;102938.69;;;8.61;78.65
60852;BME280;48553;50.766;2.900;2023-02-10T16:29:30;102941.72;;;8.59;78.93
60852;BME280;48553;50.766;2.900;2023-02-10T16:32:31;102949.91;;;8.54;78.94
60852;BME280;48553;50.766;2.900;2023-02-10T16:35:31;102947.69;;;8.51;78.55
60852;BME280;48553;50.766;2.900;2023-02-10T16:38:32;102961.34;;;8.46;79.27
60852;BME280;48553;50.766;2.900;2023-02-10T16:41:34;102949.81;;;8.39;79.46
60852;BME280;48553;50.766;2.900;2023-02-10T16:44:34;102951.44;;;8.40;79.24
60852;BME280;48553;50.766;2.900;2023-02-10T16:47:35;102948.13;;;8.37;79.26
60852;BME280;48553;50.766;2.900;2023-02-10T16:50:38;102957.69;;;8.35;79.59
60852;BME280;48553;50.766;2.900;2023-02-10T16:53:39;102956.56;;;8.31;79.83
60852;BME280;48553;50.766;2.900;2023-02-10T16:56:41;102960.41;;;8.30;79.82
60852;BME280;48553;50.766;2.900;2023-02-10T16:59:42;102967.22;;;8.27;79.88
60852;BME280;48553;50.766;2.900;2023-02-10T17:02:42;102960.66;;;8.23;79.98
60852;BME280;48553;50.766;2.900;2023-02-10T17:05:43;102955.16;;;8.18;79.95
60852;BME280;48553;50.766;2.900;2023-02-10T17:08:43;102964.72;;;8.21;80.31
60852;BME280;48553;50.766;2.900;2023-02-10T17:11:44;102969.88;;;8.17;80.18
60852;BME280;48553;50.766;2.900;2023-02-10T17:14:44;102960.59;;;8.13;80.21
60852;BME280;48553;50.766;2.900;2023-02-10T17:17:45;102961.94;;;8.10;80.33
60852;BME280;48553;50.766;2.900;2023-02-10T17:20:46;102970.91;;;8.06;80.29
60852;BME280;48553;50.766;2.900;2023-02-10T17:23:46;102980.47;;;8.03;80.43
60852;BME280;48553;50.766;2.900;2023-02-10T17:26:47;102981.25;;;7.99;80.39
60852;BME280;48553;50.766;2.900;2023-02-10T17:29:50;102982.91;;;8.00;80.48
60852;BME280;48553;50.766;2.900;2023-02-10T17:32:51;102976.56;;;7.94;80.65
60852;BME280;48553;50.766;2.900;2023-02-10T17:35:51;102976.28;;;7.90;80.74
60852;BME280;48553;50.766;2.900;2023-02-10T17:38:52;102994.84;;;7.88;80.66
60852;BME280;48553;50.766;2.900;2023-02-10T17:41:54;102994.00;;;7.88;80.51
60852;BME280;48553;50.766;2.900;2023-02-10T17:44:55;103001.91;;;7.84;80.74